Tuktoyaktuk Airport
CYUB : rendu visible

Aérodrome :











RETROUVEZ-NOUS SUR...

 
LOGIN :

S'inscrire | Disclaimer

   EN    FR    IT 

 









Légende :    VFR   VFR Marginal   IFR   IFR Intensif   IFR Très Intensif
Visi : 
Plafond : 
>= 8 km
>= 3000ft
5 à 8 km
1000 à 3000 ft
1500m à 5 km
500 à 1000 ft
800 à 1500m
200 à 500 ft
< 800m
< 200 ft
Symboles :   Orages  Brouillard  Fortes neiges  Fortes précipitations  Vent > 20 kt






- Altitude de l'aérodrome : 15 ft
- Code IATA : YUB


CYUB - Tuktoyaktuk

DERNIER METAR :
  • 042200Z 10015KT 15SM FEW008 07/M01 A3013 RMK SC1 SC TR SLP203

METARs EXPIRÉS :
  • 042100Z 10014KT 15SM FEW008 06/M01 A3013 RMK SC1 SC TR SLP203
  • 042000Z 10012G18KT 15SM FEW008 06/M01 A3013 RMK SC2 SLP203
  • 041900Z 11013KT 15SM SCT009 04/M01 A3013 RMK SC3 SLP206

TAF TAF CYUB
Valide du 04 à 19h jusqu'au 05 à 05h UTC


041838Z 0419/0505 08015KT P6SM FEW008
PROB30 0419/0421 BKN006 RMK NXT FCST BY 050100Z
FIR CZEG / Amérique du Nord



MET'MAP, la Météo Aéronautique d'un coup d'oeil ! - Copyright ORBIFLY Décembre 2007 - Disclaimer

ORBIFLY MET'MAP TEAM :

Programmation & Développement : Alexandra Zaïnal
Sur une idée originale de : Baudouin d'Aumeries
Assistance à la programmation : Marc-Olivier Méhu
Soutien technique & logistique : Manuel Goepfert

Contact : metmap@orbifly.com




SOURCES & CREDITS :

   NOAA       Earth
Advisory